createdAt,value
2023-05-15T05:05:14.707Z,94.90
2023-05-15T05:15:22.354Z,94.90
2023-05-15T05:20:27.472Z,95.10
2023-05-15T05:30:35.192Z,94.80
2023-05-15T05:35:40.244Z,94.90
2023-05-15T05:40:44.270Z,94.40
2023-05-15T05:45:48.335Z,94.70
2023-05-15T05:50:53.423Z,94.60
2023-05-15T06:01:01.210Z,94.40
2023-05-15T06:06:07.655Z,94.80
2023-05-15T06:16:15.125Z,94.80
2023-05-15T06:21:20.048Z,95.00
2023-05-15T06:26:23.964Z,94.70
2023-05-15T06:31:27.637Z,94.50
2023-05-15T06:36:32.651Z,94.60
2023-05-15T06:41:36.286Z,94.70
2023-05-15T06:46:39.921Z,94.60
2023-05-15T06:51:44.935Z,94.20
2023-05-15T06:56:48.605Z,94.20
2023-05-15T07:01:52.177Z,94.30
2023-05-15T07:06:57.147Z,94.30
2023-05-15T07:12:00.712Z,94.30
2023-05-15T07:17:04.378Z,94.50
2023-05-15T07:22:09.359Z,94.40
2023-05-15T07:27:12.929Z,94.50
2023-05-15T07:32:16.556Z,94.90
2023-05-15T07:37:21.506Z,95.40
2023-05-15T07:42:26.004Z,95.80
2023-05-15T07:47:29.419Z,96.00
2023-05-15T07:52:34.759Z,96.00
2023-05-15T07:57:39.867Z,95.80
2023-05-15T08:02:46.234Z,96.20
2023-05-15T08:07:51.463Z,96.50
2023-05-15T08:12:55.178Z,96.80
2023-05-15T08:17:58.797Z,96.80
2023-05-15T08:23:03.802Z,97.10
2023-05-15T08:28:07.391Z,97.10
2023-05-15T08:33:11.006Z,97.10
2023-05-15T08:38:16.077Z,97.20
2023-05-15T08:43:22.319Z,97.70
2023-05-15T08:48:29.690Z,97.40
2023-05-15T08:53:34.890Z,97.50
2023-05-15T08:58:39.175Z,97.90
2023-05-15T09:03:42.812Z,98.20
2023-05-15T09:08:48.344Z,98.30
2023-05-15T09:13:52.028Z,98.50
2023-05-15T09:18:55.952Z,98.50
2023-05-15T09:24:17.895Z,98.20
2023-05-15T09:29:21.440Z,98.30
2023-05-15T09:34:31.546Z,98.20
2023-05-15T09:39:42.137Z,98.10
2023-05-15T09:44:47.302Z,98.20
2023-05-15T09:49:51.090Z,98.50
2023-05-15T09:54:56.080Z,99.00
2023-05-15T10:00:09.867Z,98.90
2023-05-15T10:05:14.931Z,99.00
2023-05-15T10:10:19.963Z,99.10
2023-05-15T10:15:24.363Z,99.30
2023-05-15T10:20:28.309Z,99.30
2023-05-15T10:25:40.241Z,99.20
2023-05-15T10:30:44.223Z,99.00
2023-05-15T10:35:49.690Z,99.60
2023-05-15T10:41:09.171Z,99.90
2023-05-15T10:46:21.011Z,99.90
2023-05-15T10:51:29.929Z,99.90
2023-05-15T10:56:38.063Z,99.90
2023-05-15T11:01:42.675Z,99.90
2023-05-15T11:06:48.499Z,99.90
2023-05-15T11:11:57.695Z,99.90
2023-05-15T11:17:04.001Z,99.90
2023-05-15T11:22:30.136Z,99.90
2023-05-15T11:27:40.220Z,99.90
2023-05-15T11:32:52.137Z,99.90
2023-05-15T11:37:57.398Z,99.90
2023-05-15T11:43:04.737Z,99.90
2023-05-15T11:48:13.499Z,99.90
2023-05-15T11:53:18.061Z,99.90
2023-05-15T11:58:23.501Z,99.90
2023-05-15T12:03:28.495Z,99.90
2023-05-15T12:08:33.994Z,99.90
2023-05-15T12:13:38.981Z,99.90
2023-05-15T12:18:42.663Z,99.90
2023-05-15T12:23:59.855Z,99.90
2023-05-15T12:29:11.854Z,99.90
2023-05-15T12:34:15.735Z,99.90
2023-05-15T12:39:19.294Z,99.90
2023-05-15T12:44:27.239Z,99.80
2023-05-15T12:49:31.200Z,99.90
2023-05-15T12:54:40.985Z,99.90
2023-05-15T12:59:46.110Z,99.90
2023-05-15T13:04:49.688Z,99.90
2023-05-15T13:10:05.793Z,99.90
2023-05-15T13:15:24.287Z,99.90
2023-05-15T13:20:29.734Z,99.90
2023-05-15T13:25:33.587Z,99.90
2023-05-15T13:30:41.790Z,99.90
2023-05-15T13:35:45.816Z,99.90
2023-05-15T13:40:49.429Z,99.90
2023-05-15T13:45:54.332Z,99.90
2023-05-15T13:50:57.881Z,99.90
2023-05-15T13:56:01.474Z,99.90
2023-05-15T14:01:08.095Z,99.90
2023-05-15T14:06:11.653Z,99.70
2023-05-15T14:11:15.460Z,99.50
2023-05-15T14:16:20.368Z,99.20
2023-05-15T14:21:24.129Z,99.30
2023-05-15T14:26:27.716Z,98.80
2023-05-15T14:31:32.604Z,98.30
2023-05-15T14:36:36.320Z,98.10
2023-05-15T14:41:39.886Z,98.10
2023-05-15T14:46:45.616Z,98.30
2023-05-15T14:51:49.245Z,97.90
2023-05-15T14:56:52.774Z,97.20
2023-05-15T15:01:57.804Z,97.30
2023-05-15T15:07:03.959Z,97.40
2023-05-15T15:12:08.330Z,97.00
2023-05-15T15:17:13.252Z,97.20
2023-05-15T15:22:16.786Z,96.90
2023-05-15T15:27:20.277Z,96.40
2023-05-15T15:32:25.397Z,95.60
2023-05-15T15:37:31.480Z,95.10
2023-05-15T15:42:35.451Z,94.60
2023-05-15T15:47:40.392Z,94.50
2023-05-15T15:52:43.948Z,94.30
2023-05-15T15:57:47.481Z,93.70
2023-05-15T16:02:52.507Z,93.50
2023-05-15T16:07:56.404Z,93.00
2023-05-15T16:12:59.931Z,92.50
2023-05-15T16:18:05.132Z,92.00
2023-05-15T16:23:09.459Z,92.00
2023-05-15T16:28:13.062Z,92.20
2023-05-15T16:33:18.595Z,92.10
2023-05-15T16:38:22.832Z,91.50
2023-05-15T16:43:26.499Z,91.00
2023-05-15T16:48:31.552Z,90.20
2023-05-15T16:53:35.150Z,90.00
2023-05-15T16:58:40.801Z,89.90
2023-05-15T17:03:45.844Z,89.30
2023-05-15T17:08:49.419Z,89.20
2023-05-15T17:13:53.192Z,89.30
2023-05-15T17:18:58.143Z,88.90
2023-05-15T17:24:02.033Z,88.00
2023-05-15T17:29:05.841Z,87.10
2023-05-15T17:34:11.661Z,86.90
2023-05-15T17:39:15.435Z,86.60
2023-05-15T17:44:19.043Z,86.00
2023-05-15T17:49:24.168Z,85.50
2023-05-15T17:54:27.779Z,84.70
2023-05-15T17:59:31.961Z,83.80
2023-05-15T18:04:37.202Z,83.30
2023-05-15T18:09:40.778Z,82.90
2023-05-15T18:14:44.554Z,82.60
2023-05-15T18:19:49.490Z,82.40
2023-05-15T18:24:53.042Z,82.40
2023-05-15T18:29:56.825Z,82.30
2023-05-15T18:35:02.677Z,82.10
2023-05-15T18:40:07.554Z,82.20
2023-05-15T18:45:13.163Z,82.20
2023-05-15T18:50:18.784Z,81.90
2023-05-15T18:55:22.707Z,81.70
2023-05-15T19:00:37.216Z,81.90
2023-05-15T19:05:43.832Z,81.60
2023-05-15T19:10:49.308Z,81.70
2023-05-15T19:15:53.102Z,82.00
2023-05-15T19:20:58.058Z,81.80
2023-05-15T19:26:02.075Z,81.80
2023-05-15T19:31:08.200Z,81.80
2023-05-15T19:36:17.962Z,82.10
2023-05-15T19:41:22.313Z,82.20
2023-05-15T19:46:25.912Z,82.40
2023-05-15T19:51:31.386Z,82.60
2023-05-15T20:01:38.814Z,82.20
2023-05-15T20:06:43.754Z,82.80
2023-05-15T20:11:47.328Z,83.00
2023-05-15T20:16:50.859Z,83.20
2023-05-15T20:21:55.894Z,83.50
2023-05-15T20:26:59.513Z,83.70
2023-05-15T20:32:03.076Z,84.00
2023-05-15T20:37:08.150Z,84.00
2023-05-15T20:42:11.769Z,84.40
2023-05-15T20:47:15.550Z,84.70
2023-05-15T20:52:20.878Z,85.10
2023-05-15T20:57:24.440Z,85.30
2023-05-15T21:02:28.017Z,85.60
2023-05-15T21:07:33.004Z,86.00
2023-05-15T21:12:36.629Z,86.40
2023-05-15T21:17:40.276Z,86.70
2023-05-15T21:22:45.274Z,87.00
2023-05-15T21:27:48.822Z,87.30
2023-05-15T21:32:52.447Z,87.20
2023-05-15T21:37:57.506Z,87.60
2023-05-15T21:43:01.090Z,87.80
2023-05-15T21:48:05.160Z,88.00
2023-05-15T21:53:10.445Z,88.30
2023-05-15T22:03:18.172Z,88.40
2023-05-15T22:08:23.144Z,89.30
2023-05-15T22:13:26.854Z,89.90
2023-05-15T22:18:31.516Z,90.00
2023-05-15T22:23:36.513Z,90.00
